sensor_id;sensor_type;location;lat;lon;timestamp;P1;durP1;ratioP1;P2;durP2;ratioP2
54641;SDS011;40536;53.194;5.728;2023-01-28T00:00:05;82.40;;;78.47;;
54641;SDS011;40536;53.194;5.728;2023-01-28T00:02:33;102.82;;;98.32;;
54641;SDS011;40536;53.194;5.728;2023-01-28T00:04:59;82.60;;;78.65;;
54641;SDS011;40536;53.194;5.728;2023-01-28T00:07:25;76.18;;;72.65;;
54641;SDS011;40536;53.194;5.728;2023-01-28T00:09:51;79.13;;;75.35;;
54641;SDS011;40536;53.194;5.728;2023-01-28T00:12:17;75.72;;;72.22;;
54641;SDS011;40536;53.194;5.728;2023-01-28T00:14:43;77.30;;;73.68;;
54641;SDS011;40536;53.194;5.728;2023-01-28T00:17:10;82.30;;;78.43;;
54641;SDS011;40536;53.194;5.728;2023-01-28T00:19:36;89.22;;;85.10;;
54641;SDS011;40536;53.194;5.728;2023-01-28T00:22:02;100.35;;;95.85;;
54641;SDS011;40536;53.194;5.728;2023-01-28T00:24:28;113.18;;;108.20;;
54641;SDS011;40536;53.194;5.728;2023-01-28T00:26:54;87.70;;;83.80;;
54641;SDS011;40536;53.194;5.728;2023-01-28T00:29:20;108.20;;;103.45;;
54641;SDS011;40536;53.194;5.728;2023-01-28T00:31:45;88.60;;;84.60;;
54641;SDS011;40536;53.194;5.728;2023-01-28T00:34:11;91.63;;;87.53;;
54641;SDS011;40536;53.194;5.728;2023-01-28T00:36:37;92.07;;;87.88;;
54641;SDS011;40536;53.194;5.728;2023-01-28T00:39:03;116.82;;;111.80;;
54641;SDS011;40536;53.194;5.728;2023-01-28T00:41:30;106.95;;;102.25;;
54641;SDS011;40536;53.194;5.728;2023-01-28T00:43:56;100.20;;;95.80;;
54641;SDS011;40536;53.194;5.728;2023-01-28T00:46:22;94.68;;;90.47;;
54641;SDS011;40536;53.194;5.728;2023-01-28T00:48:49;87.78;;;83.88;;
54641;SDS011;40536;53.194;5.728;2023-01-28T00:51:15;108.72;;;103.95;;
54641;SDS011;40536;53.194;5.728;2023-01-28T00:53:44;107.70;;;103.00;;
54641;SDS011;40536;53.194;5.728;2023-01-28T00:56:13;104.38;;;99.70;;
54641;SDS011;40536;53.194;5.728;2023-01-28T00:58:41;111.97;;;107.20;;
54641;SDS011;40536;53.194;5.728;2023-01-28T01:03:39;82.45;;;78.75;;
54641;SDS011;40536;53.194;5.728;2023-01-28T01:06:05;105.18;;;100.57;;
54641;SDS011;40536;53.194;5.728;2023-01-28T01:08:31;94.80;;;90.55;;
54641;SDS011;40536;53.194;5.728;2023-01-28T01:11:04;93.80;;;89.67;;
54641;SDS011;40536;53.194;5.728;2023-01-28T01:13:31;93.53;;;89.43;;
54641;SDS011;40536;53.194;5.728;2023-01-28T01:16:12;98.90;;;94.55;;
54641;SDS011;40536;53.194;5.728;2023-01-28T01:18:40;102.32;;;97.55;;
54641;SDS011;40536;53.194;5.728;2023-01-28T01:21:07;80.80;;;76.93;;
54641;SDS011;40536;53.194;5.728;2023-01-28T01:23:37;86.07;;;82.25;;
54641;SDS011;40536;53.194;5.728;2023-01-28T01:26:03;97.03;;;92.78;;
54641;SDS011;40536;53.194;5.728;2023-01-28T01:28:30;100.72;;;96.32;;
54641;SDS011;40536;53.194;5.728;2023-01-28T01:31:03;113.93;;;109.03;;
54641;SDS011;40536;53.194;5.728;2023-01-28T01:33:39;103.70;;;99.18;;
54641;SDS011;40536;53.194;5.728;2023-01-28T01:36:06;105.50;;;100.97;;
54641;SDS011;40536;53.194;5.728;2023-01-28T01:38:32;111.72;;;106.93;;
54641;SDS011;40536;53.194;5.728;2023-01-28T01:40:58;115.30;;;110.35;;
54641;SDS011;40536;53.194;5.728;2023-01-28T01:43:25;118.78;;;113.55;;
54641;SDS011;40536;53.194;5.728;2023-01-28T01:46:11;119.38;;;114.28;;
54641;SDS011;40536;53.194;5.728;2023-01-28T01:48:37;125.70;;;120.38;;
54641;SDS011;40536;53.194;5.728;2023-01-28T01:51:05;119.93;;;114.75;;
54641;SDS011;40536;53.194;5.728;2023-01-28T01:53:34;126.03;;;120.63;;
54641;SDS011;40536;53.194;5.728;2023-01-28T01:56:03;118.43;;;113.25;;
54641;SDS011;40536;53.194;5.728;2023-01-28T01:58:33;121.07;;;115.70;;
54641;SDS011;40536;53.194;5.728;2023-01-28T02:01:01;124.85;;;119.28;;
54641;SDS011;40536;53.194;5.728;2023-01-28T02:03:29;128.82;;;123.20;;
54641;SDS011;40536;53.194;5.728;2023-01-28T02:06:17;134.98;;;128.93;;
54641;SDS011;40536;53.194;5.728;2023-01-28T02:08:44;119.43;;;114.13;;
54641;SDS011;40536;53.194;5.728;2023-01-28T02:11:09;108.32;;;103.45;;
54641;SDS011;40536;53.194;5.728;2023-01-28T02:13:40;123.65;;;118.28;;
54641;SDS011;40536;53.194;5.728;2023-01-28T02:16:08;125.35;;;119.85;;
54641;SDS011;40536;53.194;5.728;2023-01-28T02:18:35;127.68;;;122.13;;
54641;SDS011;40536;53.194;5.728;2023-01-28T02:29:37;135.15;;;129.23;;
54641;SDS011;40536;53.194;5.728;2023-01-28T02:32:24;136.40;;;130.50;;
54641;SDS011;40536;53.194;5.728;2023-01-28T02:35:11;131.73;;;126.05;;
54641;SDS011;40536;53.194;5.728;2023-01-28T02:40:33;108.07;;;103.10;;
54641;SDS011;40536;53.194;5.728;2023-01-28T02:43:33;118.55;;;113.13;;
54641;SDS011;40536;53.194;5.728;2023-01-28T02:46:14;124.68;;;118.93;;
54641;SDS011;40536;53.194;5.728;2023-01-28T02:49:17;124.07;;;118.47;;
54641;SDS011;40536;53.194;5.728;2023-01-28T03:00:17;143.50;;;137.20;;
54641;SDS011;40536;53.194;5.728;2023-01-28T03:05:42;134.68;;;128.73;;
54641;SDS011;40536;53.194;5.728;2023-01-28T03:08:33;127.97;;;122.28;;
54641;SDS011;40536;53.194;5.728;2023-01-28T03:11:26;115.20;;;109.97;;
54641;SDS011;40536;53.194;5.728;2023-01-28T03:14:13;109.43;;;104.28;;
54641;SDS011;40536;53.194;5.728;2023-01-28T03:16:59;139.48;;;133.10;;
54641;SDS011;40536;53.194;5.728;2023-01-28T03:19:45;143.80;;;137.57;;
54641;SDS011;40536;53.194;5.728;2023-01-28T03:22:31;132.20;;;126.25;;
54641;SDS011;40536;53.194;5.728;2023-01-28T03:25:19;141.40;;;135.00;;
54641;SDS011;40536;53.194;5.728;2023-01-28T03:28:06;142.48;;;136.25;;
54641;SDS011;40536;53.194;5.728;2023-01-28T03:30:57;121.57;;;115.88;;
54641;SDS011;40536;53.194;5.728;2023-01-28T03:33:46;100.65;;;95.85;;
54641;SDS011;40536;53.194;5.728;2023-01-28T03:36:31;104.55;;;99.75;;
54641;SDS011;40536;53.194;5.728;2023-01-28T03:39:22;104.38;;;99.50;;
54641;SDS011;40536;53.194;5.728;2023-01-28T03:41:56;108.85;;;103.75;;
54641;SDS011;40536;53.194;5.728;2023-01-28T03:44:30;122.28;;;116.68;;
54641;SDS011;40536;53.194;5.728;2023-01-28T03:47:16;119.30;;;113.70;;
54641;SDS011;40536;53.194;5.728;2023-01-28T03:49:43;130.38;;;124.65;;
54641;SDS011;40536;53.194;5.728;2023-01-28T03:52:13;164.80;;;157.70;;
54641;SDS011;40536;53.194;5.728;2023-01-28T03:54:40;176.52;;;168.77;;
54641;SDS011;40536;53.194;5.728;2023-01-28T03:57:06;140.25;;;133.80;;
54641;SDS011;40536;53.194;5.728;2023-01-28T03:59:32;153.82;;;147.07;;
54641;SDS011;40536;53.194;5.728;2023-01-28T04:01:58;153.73;;;147.05;;
54641;SDS011;40536;53.194;5.728;2023-01-28T04:04:24;158.50;;;151.38;;
54641;SDS011;40536;53.194;5.728;2023-01-28T04:06:53;164.88;;;157.57;;
54641;SDS011;40536;53.194;5.728;2023-01-28T04:09:19;122.85;;;117.22;;
54641;SDS011;40536;53.194;5.728;2023-01-28T04:11:46;132.95;;;126.82;;
54641;SDS011;40536;53.194;5.728;2023-01-28T04:14:12;154.20;;;147.45;;
54641;SDS011;40536;53.194;5.728;2023-01-28T04:16:40;158.00;;;151.00;;
54641;SDS011;40536;53.194;5.728;2023-01-28T04:19:07;186.30;;;178.23;;
54641;SDS011;40536;53.194;5.728;2023-01-28T04:21:33;179.90;;;172.23;;
54641;SDS011;40536;53.194;5.728;2023-01-28T04:23:59;188.18;;;180.20;;
54641;SDS011;40536;53.194;5.728;2023-01-28T04:26:26;139.98;;;133.82;;
54641;SDS011;40536;53.194;5.728;2023-01-28T04:28:52;164.00;;;156.90;;
54641;SDS011;40536;53.194;5.728;2023-01-28T04:31:17;171.80;;;164.40;;
54641;SDS011;40536;53.194;5.728;2023-01-28T04:33:43;173.88;;;166.23;;
54641;SDS011;40536;53.194;5.728;2023-01-28T04:36:09;194.00;;;185.50;;
54641;SDS011;40536;53.194;5.728;2023-01-28T04:38:34;213.05;;;203.70;;
54641;SDS011;40536;53.194;5.728;2023-01-28T04:41:00;219.90;;;210.57;;
54641;SDS011;40536;53.194;5.728;2023-01-28T04:43:25;216.05;;;206.88;;
54641;SDS011;40536;53.194;5.728;2023-01-28T04:45:51;205.80;;;197.07;;
54641;SDS011;40536;53.194;5.728;2023-01-28T04:48:17;214.15;;;205.05;;
54641;SDS011;40536;53.194;5.728;2023-01-28T04:50:43;223.07;;;213.45;;
54641;SDS011;40536;53.194;5.728;2023-01-28T04:53:09;215.15;;;205.93;;
54641;SDS011;40536;53.194;5.728;2023-01-28T04:55:36;219.75;;;210.48;;
54641;SDS011;40536;53.194;5.728;2023-01-28T04:58:02;218.68;;;209.20;;
54641;SDS011;40536;53.194;5.728;2023-01-28T05:00:28;195.27;;;186.98;;
54641;SDS011;40536;53.194;5.728;2023-01-28T05:02:54;199.48;;;190.88;;
54641;SDS011;40536;53.194;5.728;2023-01-28T05:05:19;191.50;;;182.90;;
54641;SDS011;40536;53.194;5.728;2023-01-28T05:07:51;154.25;;;147.40;;
54641;SDS011;40536;53.194;5.728;2023-01-28T05:10:18;234.20;;;224.07;;
54641;SDS011;40536;53.194;5.728;2023-01-28T05:12:45;234.68;;;224.48;;
54641;SDS011;40536;53.194;5.728;2023-01-28T05:15:12;242.55;;;232.02;;
54641;SDS011;40536;53.194;5.728;2023-01-28T05:17:38;253.45;;;242.15;;
54641;SDS011;40536;53.194;5.728;2023-01-28T05:20:04;267.58;;;255.57;;
54641;SDS011;40536;53.194;5.728;2023-01-28T05:22:30;268.52;;;256.67;;
54641;SDS011;40536;53.194;5.728;2023-01-28T05:24:56;287.73;;;274.60;;
54641;SDS011;40536;53.194;5.728;2023-01-28T05:27:21;266.52;;;254.68;;
54641;SDS011;40536;53.194;5.728;2023-01-28T05:29:47;259.90;;;248.40;;
54641;SDS011;40536;53.194;5.728;2023-01-28T05:32:13;272.30;;;260.00;;
54641;SDS011;40536;53.194;5.728;2023-01-28T05:34:38;237.30;;;226.82;;
54641;SDS011;40536;53.194;5.728;2023-01-28T05:37:04;253.98;;;242.38;;
54641;SDS011;40536;53.194;5.728;2023-01-28T05:39:29;251.20;;;239.90;;
54641;SDS011;40536;53.194;5.728;2023-01-28T05:41:55;223.52;;;213.80;;
54641;SDS011;40536;53.194;5.728;2023-01-28T05:44:21;223.25;;;213.35;;
54641;SDS011;40536;53.194;5.728;2023-01-28T05:46:47;207.57;;;198.48;;
54641;SDS011;40536;53.194;5.728;2023-01-28T05:49:12;221.27;;;211.30;;
54641;SDS011;40536;53.194;5.728;2023-01-28T05:51:39;219.93;;;210.27;;
54641;SDS011;40536;53.194;5.728;2023-01-28T05:54:05;197.05;;;188.50;;
54641;SDS011;40536;53.194;5.728;2023-01-28T05:56:31;194.77;;;186.23;;
54641;SDS011;40536;53.194;5.728;2023-01-28T05:58:59;199.65;;;190.68;;
54641;SDS011;40536;53.194;5.728;2023-01-28T06:01:24;200.77;;;191.88;;
54641;SDS011;40536;53.194;5.728;2023-01-28T06:03:50;196.80;;;188.10;;
54641;SDS011;40536;53.194;5.728;2023-01-28T06:06:16;271.20;;;258.50;;
54641;SDS011;40536;53.194;5.728;2023-01-28T06:08:41;286.42;;;273.05;;
54641;SDS011;40536;53.194;5.728;2023-01-28T06:11:07;247.85;;;236.77;;
54641;SDS011;40536;53.194;5.728;2023-01-28T06:13:33;246.48;;;235.40;;
54641;SDS011;40536;53.194;5.728;2023-01-28T06:15:58;222.88;;;212.95;;
54641;SDS011;40536;53.194;5.728;2023-01-28T06:18:24;254.63;;;243.05;;
54641;SDS011;40536;53.194;5.728;2023-01-28T06:20:50;244.60;;;233.13;;
54641;SDS011;40536;53.194;5.728;2023-01-28T06:23:16;234.35;;;223.63;;
54641;SDS011;40536;53.194;5.728;2023-01-28T06:25:42;225.80;;;215.63;;
54641;SDS011;40536;53.194;5.728;2023-01-28T06:28:07;237.57;;;226.65;;
54641;SDS011;40536;53.194;5.728;2023-01-28T06:30:33;246.85;;;235.88;;
54641;SDS011;40536;53.194;5.728;2023-01-28T06:32:59;252.30;;;240.90;;
54641;SDS011;40536;53.194;5.728;2023-01-28T06:35:25;218.32;;;208.50;;
54641;SDS011;40536;53.194;5.728;2023-01-28T06:37:51;278.48;;;265.58;;
54641;SDS011;40536;53.194;5.728;2023-01-28T06:40:17;272.90;;;260.30;;
54641;SDS011;40536;53.194;5.728;2023-01-28T06:42:43;298.08;;;283.88;;
54641;SDS011;40536;53.194;5.728;2023-01-28T06:45:09;286.05;;;272.67;;
54641;SDS011;40536;53.194;5.728;2023-01-28T06:47:37;344.08;;;324.17;;
54641;SDS011;40536;53.194;5.728;2023-01-28T06:50:03;329.55;;;312.27;;
54641;SDS011;40536;53.194;5.728;2023-01-28T06:52:29;325.35;;;308.52;;
54641;SDS011;40536;53.194;5.728;2023-01-28T06:54:55;292.58;;;278.23;;
54641;SDS011;40536;53.194;5.728;2023-01-28T06:57:21;275.45;;;262.35;;
54641;SDS011;40536;53.194;5.728;2023-01-28T06:59:46;262.75;;;250.50;;
54641;SDS011;40536;53.194;5.728;2023-01-28T07:02:12;256.15;;;244.48;;
54641;SDS011;40536;53.194;5.728;2023-01-28T07:04:37;225.75;;;215.15;;
54641;SDS011;40536;53.194;5.728;2023-01-28T07:07:03;268.50;;;255.73;;
54641;SDS011;40536;53.194;5.728;2023-01-28T07:09:29;280.85;;;266.95;;
54641;SDS011;40536;53.194;5.728;2023-01-28T07:11:54;282.52;;;268.88;;
54641;SDS011;40536;53.194;5.728;2023-01-28T07:14:20;300.67;;;285.83;;
54641;SDS011;40536;53.194;5.728;2023-01-28T07:16:46;274.75;;;261.40;;
54641;SDS011;40536;53.194;5.728;2023-01-28T07:19:11;264.52;;;251.52;;
54641;SDS011;40536;53.194;5.728;2023-01-28T07:21:37;270.13;;;256.77;;
54641;SDS011;40536;53.194;5.728;2023-01-28T07:24:02;210.73;;;200.85;;
54641;SDS011;40536;53.194;5.728;2023-01-28T07:26:29;260.08;;;247.80;;
54641;SDS011;40536;53.194;5.728;2023-01-28T07:28:55;240.27;;;229.13;;
54641;SDS011;40536;53.194;5.728;2023-01-28T07:31:21;245.45;;;234.20;;
54641;SDS011;40536;53.194;5.728;2023-01-28T07:33:46;241.32;;;230.07;;
54641;SDS011;40536;53.194;5.728;2023-01-28T07:36:12;220.18;;;210.05;;
54641;SDS011;40536;53.194;5.728;2023-01-28T07:38:38;251.77;;;240.13;;
54641;SDS011;40536;53.194;5.728;2023-01-28T07:41:03;233.10;;;222.18;;
54641;SDS011;40536;53.194;5.728;2023-01-28T07:43:29;220.88;;;210.80;;
54641;SDS011;40536;53.194;5.728;2023-01-28T07:45:58;232.32;;;221.68;;
54641;SDS011;40536;53.194;5.728;2023-01-28T07:48:25;266.00;;;253.50;;
54641;SDS011;40536;53.194;5.728;2023-01-28T07:50:51;238.10;;;227.02;;
54641;SDS011;40536;53.194;5.728;2023-01-28T07:53:17;255.02;;;243.32;;
54641;SDS011;40536;53.194;5.728;2023-01-28T07:55:44;250.90;;;239.35;;
54641;SDS011;40536;53.194;5.728;2023-01-28T07:58:10;256.75;;;244.95;;
54641;SDS011;40536;53.194;5.728;2023-01-28T08:00:36;261.27;;;249.23;;
54641;SDS011;40536;53.194;5.728;2023-01-28T08:03:04;266.75;;;254.27;;
54641;SDS011;40536;53.194;5.728;2023-01-28T08:05:44;240.00;;;228.82;;
54641;SDS011;40536;53.194;5.728;2023-01-28T08:08:11;218.35;;;208.05;;
54641;SDS011;40536;53.194;5.728;2023-01-28T08:10:38;190.57;;;181.63;;
54641;SDS011;40536;53.194;5.728;2023-01-28T08:13:04;182.60;;;174.05;;
54641;SDS011;40536;53.194;5.728;2023-01-28T08:15:30;176.45;;;168.07;;
54641;SDS011;40536;53.194;5.728;2023-01-28T08:17:56;209.93;;;200.38;;
54641;SDS011;40536;53.194;5.728;2023-01-28T08:20:24;214.18;;;204.02;;
54641;SDS011;40536;53.194;5.728;2023-01-28T08:22:51;187.52;;;178.60;;
54641;SDS011;40536;53.194;5.728;2023-01-28T08:25:17;203.00;;;193.55;;
54641;SDS011;40536;53.194;5.728;2023-01-28T08:27:42;222.35;;;211.80;;
54641;SDS011;40536;53.194;5.728;2023-01-28T08:30:08;239.40;;;227.38;;
54641;SDS011;40536;53.194;5.728;2023-01-28T08:32:35;259.95;;;247.90;;
54641;SDS011;40536;53.194;5.728;2023-01-28T08:35:00;242.32;;;230.70;;
54641;SDS011;40536;53.194;5.728;2023-01-28T08:37:26;222.20;;;211.80;;
54641;SDS011;40536;53.194;5.728;2023-01-28T08:39:52;257.90;;;245.48;;
54641;SDS011;40536;53.194;5.728;2023-01-28T08:42:17;265.38;;;252.68;;
54641;SDS011;40536;53.194;5.728;2023-01-28T08:44:43;302.73;;;287.38;;
54641;SDS011;40536;53.194;5.728;2023-01-28T08:47:09;298.83;;;284.60;;
54641;SDS011;40536;53.194;5.728;2023-01-28T08:49:35;297.23;;;282.77;;
54641;SDS011;40536;53.194;5.728;2023-01-28T08:52:00;324.60;;;307.85;;
54641;SDS011;40536;53.194;5.728;2023-01-28T08:54:26;331.13;;;314.08;;
54641;SDS011;40536;53.194;5.728;2023-01-28T08:56:52;352.73;;;333.98;;
54641;SDS011;40536;53.194;5.728;2023-01-28T08:59:17;337.60;;;320.83;;
54641;SDS011;40536;53.194;5.728;2023-01-28T09:01:43;335.00;;;318.15;;
54641;SDS011;40536;53.194;5.728;2023-01-28T09:04:08;334.15;;;317.45;;
54641;SDS011;40536;53.194;5.728;2023-01-28T09:06:34;305.75;;;291.35;;
54641;SDS011;40536;53.194;5.728;2023-01-28T09:09:00;317.38;;;302.00;;
54641;SDS011;40536;53.194;5.728;2023-01-28T09:11:27;321.25;;;305.30;;
54641;SDS011;40536;53.194;5.728;2023-01-28T09:13:53;296.02;;;282.02;;
54641;SDS011;40536;53.194;5.728;2023-01-28T09:16:20;278.45;;;265.45;;
54641;SDS011;40536;53.194;5.728;2023-01-28T09:18:46;284.50;;;271.20;;
54641;SDS011;40536;53.194;5.728;2023-01-28T09:21:12;263.88;;;251.57;;
54641;SDS011;40536;53.194;5.728;2023-01-28T09:23:38;248.52;;;237.32;;
54641;SDS011;40536;53.194;5.728;2023-01-28T09:26:04;227.18;;;216.70;;
54641;SDS011;40536;53.194;5.728;2023-01-28T09:28:30;185.13;;;176.65;;
54641;SDS011;40536;53.194;5.728;2023-01-28T09:31:03;191.35;;;182.40;;
54641;SDS011;40536;53.194;5.728;2023-01-28T09:33:31;207.38;;;197.77;;
54641;SDS011;40536;53.194;5.728;2023-01-28T09:36:01;229.82;;;219.55;;
54641;SDS011;40536;53.194;5.728;2023-01-28T09:38:28;239.57;;;229.00;;
54641;SDS011;40536;53.194;5.728;2023-01-28T09:40:54;249.63;;;238.30;;
54641;SDS011;40536;53.194;5.728;2023-01-28T09:46:05;168.30;;;160.52;;
54641;SDS011;40536;53.194;5.728;2023-01-28T09:48:36;176.48;;;168.43;;
54641;SDS011;40536;53.194;5.728;2023-01-28T09:51:09;176.57;;;168.55;;
54641;SDS011;40536;53.194;5.728;2023-01-28T09:53:44;171.55;;;163.73;;
54641;SDS011;40536;53.194;5.728;2023-01-28T09:56:17;195.13;;;186.05;;
54641;SDS011;40536;53.194;5.728;2023-01-28T09:58:50;228.25;;;218.40;;
54641;SDS011;40536;53.194;5.728;2023-01-28T10:14:36;68.43;;;64.63;;
54641;SDS011;40536;53.194;5.728;2023-01-28T10:17:25;92.03;;;87.47;;
54641;SDS011;40536;53.194;5.728;2023-01-28T10:20:05;117.85;;;112.15;;
54641;SDS011;40536;53.194;5.728;2023-01-28T10:22:44;112.47;;;107.05;;
54641;SDS011;40536;53.194;5.728;2023-01-28T10:25:20;117.57;;;112.03;;
54641;SDS011;40536;53.194;5.728;2023-01-28T10:27:49;106.20;;;100.85;;
54641;SDS011;40536;53.194;5.728;2023-01-28T10:32:49;62.70;;;59.25;;
54641;SDS011;40536;53.194;5.728;2023-01-28T10:35:36;65.35;;;61.67;;
54641;SDS011;40536;53.194;5.728;2023-01-28T10:38:05;45.35;;;42.55;;
54641;SDS011;40536;53.194;5.728;2023-01-28T10:40:34;49.05;;;46.15;;
54641;SDS011;40536;53.194;5.728;2023-01-28T10:43:00;38.20;;;35.60;;
54641;SDS011;40536;53.194;5.728;2023-01-28T10:48:20;35.83;;;33.53;;
54641;SDS011;40536;53.194;5.728;2023-01-28T10:50:51;37.90;;;35.40;;
54641;SDS011;40536;53.194;5.728;2023-01-28T10:53:32;64.57;;;60.97;;
54641;SDS011;40536;53.194;5.728;2023-01-28T10:56:22;49.95;;;47.15;;
54641;SDS011;40536;53.194;5.728;2023-01-28T10:59:14;37.70;;;35.20;;
54641;SDS011;40536;53.194;5.728;2023-01-28T11:01:52;41.83;;;39.28;;
54641;SDS011;40536;53.194;5.728;2023-01-28T11:04:27;52.55;;;49.17;;
54641;SDS011;40536;53.194;5.728;2023-01-28T11:06:56;49.08;;;46.38;;
54641;SDS011;40536;53.194;5.728;2023-01-28T11:09:25;58.35;;;55.35;;
54641;SDS011;40536;53.194;5.728;2023-01-28T11:11:52;50.45;;;47.22;;
54641;SDS011;40536;53.194;5.728;2023-01-28T11:14:21;50.78;;;47.80;;
54641;SDS011;40536;53.194;5.728;2023-01-28T11:16:49;45.15;;;42.35;;
54641;SDS011;40536;53.194;5.728;2023-01-28T11:19:17;37.10;;;34.80;;
54641;SDS011;40536;53.194;5.728;2023-01-28T11:21:51;35.47;;;33.17;;
54641;SDS011;40536;53.194;5.728;2023-01-28T11:24:21;36.42;;;33.92;;
54641;SDS011;40536;53.194;5.728;2023-01-28T11:26:51;43.63;;;40.95;;
54641;SDS011;40536;53.194;5.728;2023-01-28T11:31:51;34.70;;;32.58;;
54641;SDS011;40536;53.194;5.728;2023-01-28T11:34:17;37.95;;;35.42;;
54641;SDS011;40536;53.194;5.728;2023-01-28T11:37:03;49.17;;;46.17;;
54641;SDS011;40536;53.194;5.728;2023-01-28T11:39:38;47.15;;;44.35;;
54641;SDS011;40536;53.194;5.728;2023-01-28T11:42:20;49.53;;;46.65;;
54641;SDS011;40536;53.194;5.728;2023-01-28T11:44:47;34.17;;;31.92;;
54641;SDS011;40536;53.194;5.728;2023-01-28T11:50:13;44.00;;;41.40;;
54641;SDS011;40536;53.194;5.728;2023-01-28T11:53:18;41.03;;;38.53;;
54641;SDS011;40536;53.194;5.728;2023-01-28T11:58:51;40.78;;;38.28;;
54641;SDS011;40536;53.194;5.728;2023-01-28T12:09:58;28.67;;;26.77;;
54641;SDS011;40536;53.194;5.728;2023-01-28T12:12:47;28.50;;;26.70;;
54641;SDS011;40536;53.194;5.728;2023-01-28T12:23:24;31.15;;;29.10;;
54641;SDS011;40536;53.194;5.728;2023-01-28T12:26:25;30.85;;;28.88;;
54641;SDS011;40536;53.194;5.728;2023-01-28T12:42:34;30.75;;;28.77;;
54641;SDS011;40536;53.194;5.728;2023-01-28T12:47:57;31.40;;;29.50;;
54641;SDS011;40536;53.194;5.728;2023-01-28T12:50:32;32.78;;;30.73;;
54641;SDS011;40536;53.194;5.728;2023-01-28T12:53:13;36.05;;;34.05;;
54641;SDS011;40536;53.194;5.728;2023-01-28T12:56:11;36.08;;;34.08;;
54641;SDS011;40536;53.194;5.728;2023-01-28T13:01:19;33.08;;;31.08;;
54641;SDS011;40536;53.194;5.728;2023-01-28T13:03:50;33.65;;;31.80;;
54641;SDS011;40536;53.194;5.728;2023-01-28T13:06:42;38.20;;;36.20;;
54641;SDS011;40536;53.194;5.728;2023-01-28T13:09:18;35.72;;;33.63;;
54641;SDS011;40536;53.194;5.728;2023-01-28T13:11:47;34.60;;;32.35;;
54641;SDS011;40536;53.194;5.728;2023-01-28T13:14:15;30.42;;;28.73;;
54641;SDS011;40536;53.194;5.728;2023-01-28T13:16:42;26.98;;;25.38;;
54641;SDS011;40536;53.194;5.728;2023-01-28T13:21:42;27.58;;;25.67;;
54641;SDS011;40536;53.194;5.728;2023-01-28T13:31:47;36.65;;;34.67;;
54641;SDS011;40536;53.194;5.728;2023-01-28T13:34:35;35.47;;;33.58;;
54641;SDS011;40536;53.194;5.728;2023-01-28T13:40:29;36.58;;;34.58;;
54641;SDS011;40536;53.194;5.728;2023-01-28T13:43:02;37.70;;;35.70;;
54641;SDS011;40536;53.194;5.728;2023-01-28T13:45:30;39.15;;;36.85;;
54641;SDS011;40536;53.194;5.728;2023-01-28T13:47:59;42.78;;;40.53;;
54641;SDS011;40536;53.194;5.728;2023-01-28T13:50:51;40.28;;;37.97;;
54641;SDS011;40536;53.194;5.728;2023-01-28T13:53:33;38.47;;;36.22;;
54641;SDS011;40536;53.194;5.728;2023-01-28T13:56:07;40.60;;;38.17;;
54641;SDS011;40536;53.194;5.728;2023-01-28T14:15:51;41.88;;;39.78;;
54641;SDS011;40536;53.194;5.728;2023-01-28T14:18:41;48.65;;;46.00;;
54641;SDS011;40536;53.194;5.728;2023-01-28T14:21:12;49.70;;;47.25;;
54641;SDS011;40536;53.194;5.728;2023-01-28T14:23:44;50.53;;;48.05;;
54641;SDS011;40536;53.194;5.728;2023-01-28T14:26:15;50.60;;;47.78;;
54641;SDS011;40536;53.194;5.728;2023-01-28T14:28:54;50.95;;;48.42;;
54641;SDS011;40536;53.194;5.728;2023-01-28T14:31:36;56.30;;;53.47;;
54641;SDS011;40536;53.194;5.728;2023-01-28T14:34:21;50.65;;;47.47;;
54641;SDS011;40536;53.194;5.728;2023-01-28T14:36:47;52.42;;;49.78;;
54641;SDS011;40536;53.194;5.728;2023-01-28T14:39:17;54.15;;;51.55;;
54641;SDS011;40536;53.194;5.728;2023-01-28T14:41:49;47.42;;;45.03;;
54641;SDS011;40536;53.194;5.728;2023-01-28T14:44:37;46.30;;;43.83;;
54641;SDS011;40536;53.194;5.728;2023-01-28T14:58:02;43.15;;;40.95;;
54641;SDS011;40536;53.194;5.728;2023-01-28T15:00:31;46.15;;;43.58;;
54641;SDS011;40536;53.194;5.728;2023-01-28T15:02:58;42.15;;;39.92;;
54641;SDS011;40536;53.194;5.728;2023-01-28T15:05:26;44.67;;;42.15;;
54641;SDS011;40536;53.194;5.728;2023-01-28T15:07:52;38.38;;;36.22;;
54641;SDS011;40536;53.194;5.728;2023-01-28T15:10:21;40.35;;;38.30;;
54641;SDS011;40536;53.194;5.728;2023-01-28T15:12:55;39.58;;;37.40;;
54641;SDS011;40536;53.194;5.728;2023-01-28T15:18:10;42.08;;;39.72;;
54641;SDS011;40536;53.194;5.728;2023-01-28T15:20:46;45.38;;;43.05;;
54641;SDS011;40536;53.194;5.728;2023-01-28T15:23:14;44.50;;;42.20;;
54641;SDS011;40536;53.194;5.728;2023-01-28T15:25:42;44.00;;;41.67;;
54641;SDS011;40536;53.194;5.728;2023-01-28T15:28:11;39.72;;;37.72;;
54641;SDS011;40536;53.194;5.728;2023-01-28T15:30:44;44.38;;;41.67;;
54641;SDS011;40536;53.194;5.728;2023-01-28T15:33:12;43.67;;;41.35;;
54641;SDS011;40536;53.194;5.728;2023-01-28T15:35:45;44.67;;;42.10;;
54641;SDS011;40536;53.194;5.728;2023-01-28T15:38:11;46.10;;;43.80;;
54641;SDS011;40536;53.194;5.728;2023-01-28T15:40:41;52.55;;;49.75;;
54641;SDS011;40536;53.194;5.728;2023-01-28T15:43:28;56.33;;;53.42;;
54641;SDS011;40536;53.194;5.728;2023-01-28T15:45:59;57.15;;;54.03;;
54641;SDS011;40536;53.194;5.728;2023-01-28T15:48:32;68.82;;;65.30;;
54641;SDS011;40536;53.194;5.728;2023-01-28T15:53:26;149.02;;;142.48;;
54641;SDS011;40536;53.194;5.728;2023-01-28T15:56:04;118.38;;;113.25;;
54641;SDS011;40536;53.194;5.728;2023-01-28T15:58:31;127.18;;;121.70;;
54641;SDS011;40536;53.194;5.728;2023-01-28T16:03:34;152.35;;;146.05;;
54641;SDS011;40536;53.194;5.728;2023-01-28T16:08:43;179.35;;;172.00;;
54641;SDS011;40536;53.194;5.728;2023-01-28T16:11:11;191.45;;;183.65;;
54641;SDS011;40536;53.194;5.728;2023-01-28T16:16:10;137.50;;;131.75;;
54641;SDS011;40536;53.194;5.728;2023-01-28T16:18:43;129.68;;;124.18;;
54641;SDS011;40536;53.194;5.728;2023-01-28T16:21:22;163.57;;;156.77;;
54641;SDS011;40536;53.194;5.728;2023-01-28T16:23:59;119.68;;;114.55;;
54641;SDS011;40536;53.194;5.728;2023-01-28T16:26:28;131.18;;;124.57;;
54641;SDS011;40536;53.194;5.728;2023-01-28T16:28:55;114.30;;;109.43;;
54641;SDS011;40536;53.194;5.728;2023-01-28T16:31:21;109.90;;;105.10;;
54641;SDS011;40536;53.194;5.728;2023-01-28T16:33:47;104.22;;;99.72;;
54641;SDS011;40536;53.194;5.728;2023-01-28T16:36:15;115.43;;;110.32;;
54641;SDS011;40536;53.194;5.728;2023-01-28T16:38:43;153.95;;;147.60;;
54641;SDS011;40536;53.194;5.728;2023-01-28T16:41:13;155.52;;;149.10;;
54641;SDS011;40536;53.194;5.728;2023-01-28T16:43:59;169.00;;;161.82;;
54641;SDS011;40536;53.194;5.728;2023-01-28T16:46:30;133.73;;;127.95;;
54641;SDS011;40536;53.194;5.728;2023-01-28T16:48:55;233.80;;;223.93;;